< < Back
Terminal Aerodrome Forecast


Current Version              Previous Versions:   1  2  3  4  5  6  7  8  9  

Terminal Aerodrome Forecast

795
FTUS42 KMLB 272331
TAFDAB
TAF
KDAB 272331Z 2800/2824 22003KT P6SM FEW040 BKN150 OVC200
     FM280200 VRB02KT P6SM FEW100 BKN250
     FM281400 09005KT P6SM SCT025 SCT060 BKN250
     FM281800 08008KT P6SM VCTS SCT035CB BKN250 PROB30 2818/2822 TS
      BKN035CB BKN080=



Latest METAR

850
SAUS80 KWBC 280500 RRA
MTRDAB
METAR KDAB 280453Z 00000KT 9SM FEW150 BKN250 23/22 A3001 RMK AO2 SLP161
T02280222 403110222


USA.gov is the U.S. government's official web portal to all federal, state and local government web resources and services.